sensor_id;sensor_type;location;lat;lon;timestamp;P1;durP1;ratioP1;P2;durP2;ratioP2
6987;SDS011;3534;49.960;8.018;2023-03-01T00:00:47;33.43;;;11.90;;
6987;SDS011;3534;49.960;8.018;2023-03-01T00:03:15;27.23;;;10.70;;
6987;SDS011;3534;49.960;8.018;2023-03-01T00:05:43;32.13;;;12.43;;
6987;SDS011;3534;49.960;8.018;2023-03-01T00:08:10;16.43;;;8.80;;
6987;SDS011;3534;49.960;8.018;2023-03-01T00:10:37;13.40;;;8.30;;
6987;SDS011;3534;49.960;8.018;2023-03-01T00:13:04;12.20;;;7.63;;
6987;SDS011;3534;49.960;8.018;2023-03-01T00:15:31;21.07;;;10.10;;
6987;SDS011;3534;49.960;8.018;2023-03-01T00:17:57;18.93;;;9.10;;
6987;SDS011;3534;49.960;8.018;2023-03-01T00:20:25;12.97;;;7.90;;
6987;SDS011;3534;49.960;8.018;2023-03-01T00:22:52;12.37;;;7.60;;
6987;SDS011;3534;49.960;8.018;2023-03-01T00:25:19;11.00;;;7.20;;
6987;SDS011;3534;49.960;8.018;2023-03-01T00:27:46;12.27;;;7.90;;
6987;SDS011;3534;49.960;8.018;2023-03-01T00:30:14;12.23;;;7.53;;
6987;SDS011;3534;49.960;8.018;2023-03-01T00:32:40;11.53;;;7.00;;
6987;SDS011;3534;49.960;8.018;2023-03-01T00:35:07;13.27;;;7.50;;
6987;SDS011;3534;49.960;8.018;2023-03-01T00:37:35;14.10;;;8.03;;
6987;SDS011;3534;49.960;8.018;2023-03-01T00:40:02;12.30;;;7.50;;
6987;SDS011;3534;49.960;8.018;2023-03-01T00:42:31;16.03;;;7.73;;
6987;SDS011;3534;49.960;8.018;2023-03-01T00:44:57;12.97;;;7.70;;
6987;SDS011;3534;49.960;8.018;2023-03-01T00:47:24;18.80;;;8.40;;
6987;SDS011;3534;49.960;8.018;2023-03-01T00:49:51;19.30;;;8.67;;
6987;SDS011;3534;49.960;8.018;2023-03-01T00:52:17;19.83;;;9.17;;
6987;SDS011;3534;49.960;8.018;2023-03-01T00:54:45;18.03;;;8.53;;
6987;SDS011;3534;49.960;8.018;2023-03-01T00:57:12;13.47;;;7.27;;
6987;SDS011;3534;49.960;8.018;2023-03-01T00:59:39;14.43;;;8.10;;
6987;SDS011;3534;49.960;8.018;2023-03-01T01:02:05;13.53;;;7.27;;
6987;SDS011;3534;49.960;8.018;2023-03-01T01:04:32;14.37;;;8.10;;
6987;SDS011;3534;49.960;8.018;2023-03-01T01:06:58;11.20;;;8.23;;
6987;SDS011;3534;49.960;8.018;2023-03-01T01:09:25;14.00;;;8.70;;
6987;SDS011;3534;49.960;8.018;2023-03-01T01:11:53;15.17;;;8.13;;
6987;SDS011;3534;49.960;8.018;2023-03-01T01:14:20;11.93;;;7.50;;
6987;SDS011;3534;49.960;8.018;2023-03-01T01:16:46;13.53;;;8.07;;
6987;SDS011;3534;49.960;8.018;2023-03-01T01:19:13;10.67;;;7.83;;
6987;SDS011;3534;49.960;8.018;2023-03-01T01:21:40;10.57;;;7.70;;
6987;SDS011;3534;49.960;8.018;2023-03-01T01:24:08;13.70;;;9.20;;
6987;SDS011;3534;49.960;8.018;2023-03-01T01:26:35;17.37;;;9.80;;
6987;SDS011;3534;49.960;8.018;2023-03-01T01:29:03;19.33;;;10.43;;
6987;SDS011;3534;49.960;8.018;2023-03-01T01:31:31;19.17;;;10.77;;
6987;SDS011;3534;49.960;8.018;2023-03-01T01:33:59;18.30;;;11.70;;
6987;SDS011;3534;49.960;8.018;2023-03-01T01:36:26;16.23;;;9.53;;
6987;SDS011;3534;49.960;8.018;2023-03-01T01:38:53;15.27;;;9.67;;
6987;SDS011;3534;49.960;8.018;2023-03-01T01:41:20;15.03;;;9.43;;
6987;SDS011;3534;49.960;8.018;2023-03-01T01:43:48;12.63;;;8.20;;
6987;SDS011;3534;49.960;8.018;2023-03-01T01:46:37;19.87;;;11.10;;
6987;SDS011;3534;49.960;8.018;2023-03-01T01:49:07;13.13;;;9.33;;
6987;SDS011;3534;49.960;8.018;2023-03-01T01:51:43;16.77;;;9.30;;
6987;SDS011;3534;49.960;8.018;2023-03-01T01:54:14;16.70;;;9.40;;
6987;SDS011;3534;49.960;8.018;2023-03-01T01:56:46;16.80;;;9.77;;
6987;SDS011;3534;49.960;8.018;2023-03-01T01:59:16;19.40;;;10.20;;
6987;SDS011;3534;49.960;8.018;2023-03-01T02:01:44;13.73;;;9.00;;
6987;SDS011;3534;49.960;8.018;2023-03-01T02:04:11;11.70;;;8.67;;
6987;SDS011;3534;49.960;8.018;2023-03-01T02:06:39;18.97;;;10.63;;
6987;SDS011;3534;49.960;8.018;2023-03-01T02:09:11;19.97;;;9.70;;
6987;SDS011;3534;49.960;8.018;2023-03-01T02:11:40;14.27;;;8.90;;
6987;SDS011;3534;49.960;8.018;2023-03-01T02:14:08;16.30;;;8.47;;
6987;SDS011;3534;49.960;8.018;2023-03-01T02:16:35;15.80;;;9.37;;
6987;SDS011;3534;49.960;8.018;2023-03-01T02:19:03;12.60;;;8.80;;
6987;SDS011;3534;49.960;8.018;2023-03-01T02:21:35;17.30;;;9.40;;
6987;SDS011;3534;49.960;8.018;2023-03-01T02:24:10;14.73;;;9.23;;
6987;SDS011;3534;49.960;8.018;2023-03-01T02:26:48;14.80;;;8.83;;
6987;SDS011;3534;49.960;8.018;2023-03-01T02:29:18;18.33;;;8.40;;
6987;SDS011;3534;49.960;8.018;2023-03-01T02:31:46;15.77;;;9.10;;
6987;SDS011;3534;49.960;8.018;2023-03-01T02:34:13;17.60;;;9.90;;
6987;SDS011;3534;49.960;8.018;2023-03-01T02:36:44;13.73;;;8.83;;
6987;SDS011;3534;49.960;8.018;2023-03-01T02:39:14;14.87;;;9.00;;
6987;SDS011;3534;49.960;8.018;2023-03-01T02:41:47;16.40;;;9.73;;
6987;SDS011;3534;49.960;8.018;2023-03-01T02:44:19;17.03;;;9.40;;
6987;SDS011;3534;49.960;8.018;2023-03-01T02:46:47;15.50;;;9.90;;
6987;SDS011;3534;49.960;8.018;2023-03-01T02:49:16;14.47;;;9.60;;
6987;SDS011;3534;49.960;8.018;2023-03-01T02:51:47;16.10;;;10.10;;
6987;SDS011;3534;49.960;8.018;2023-03-01T02:54:39;17.67;;;10.30;;
6987;SDS011;3534;49.960;8.018;2023-03-01T02:57:07;21.97;;;10.23;;
6987;SDS011;3534;49.960;8.018;2023-03-01T02:59:36;24.97;;;11.47;;
6987;SDS011;3534;49.960;8.018;2023-03-01T03:02:05;16.77;;;10.27;;
6987;SDS011;3534;49.960;8.018;2023-03-01T03:04:32;18.10;;;10.10;;
6987;SDS011;3534;49.960;8.018;2023-03-01T03:06:59;16.60;;;10.23;;
6987;SDS011;3534;49.960;8.018;2023-03-01T03:09:26;17.73;;;10.47;;
6987;SDS011;3534;49.960;8.018;2023-03-01T03:11:53;16.10;;;9.20;;
6987;SDS011;3534;49.960;8.018;2023-03-01T03:14:19;18.83;;;11.00;;
6987;SDS011;3534;49.960;8.018;2023-03-01T03:16:48;16.03;;;9.40;;
6987;SDS011;3534;49.960;8.018;2023-03-01T03:19:16;17.03;;;10.00;;
6987;SDS011;3534;49.960;8.018;2023-03-01T03:21:43;17.43;;;9.53;;
6987;SDS011;3534;49.960;8.018;2023-03-01T03:24:10;15.30;;;8.90;;
6987;SDS011;3534;49.960;8.018;2023-03-01T03:26:37;17.77;;;9.73;;
6987;SDS011;3534;49.960;8.018;2023-03-01T03:29:04;15.80;;;9.03;;
6987;SDS011;3534;49.960;8.018;2023-03-01T03:31:31;17.77;;;12.60;;
6987;SDS011;3534;49.960;8.018;2023-03-01T03:33:59;13.40;;;8.73;;
6987;SDS011;3534;49.960;8.018;2023-03-01T03:36:25;18.30;;;10.30;;
6987;SDS011;3534;49.960;8.018;2023-03-01T03:38:52;17.63;;;9.70;;
6987;SDS011;3534;49.960;8.018;2023-03-01T03:41:18;18.13;;;8.97;;
6987;SDS011;3534;49.960;8.018;2023-03-01T03:43:45;15.03;;;9.20;;
6987;SDS011;3534;49.960;8.018;2023-03-01T03:46:13;17.43;;;9.93;;
6987;SDS011;3534;49.960;8.018;2023-03-01T03:48:40;12.97;;;9.93;;
6987;SDS011;3534;49.960;8.018;2023-03-01T03:51:11;15.27;;;10.40;;
6987;SDS011;3534;49.960;8.018;2023-03-01T03:53:38;19.53;;;9.97;;
6987;SDS011;3534;49.960;8.018;2023-03-01T03:56:05;14.50;;;9.50;;
6987;SDS011;3534;49.960;8.018;2023-03-01T03:58:32;16.97;;;10.00;;
6987;SDS011;3534;49.960;8.018;2023-03-01T04:00:59;15.67;;;9.80;;
6987;SDS011;3534;49.960;8.018;2023-03-01T04:03:27;17.50;;;10.80;;
6987;SDS011;3534;49.960;8.018;2023-03-01T04:05:56;16.97;;;9.90;;
6987;SDS011;3534;49.960;8.018;2023-03-01T04:08:25;14.90;;;9.80;;
6987;SDS011;3534;49.960;8.018;2023-03-01T04:10:55;15.17;;;9.63;;
6987;SDS011;3534;49.960;8.018;2023-03-01T04:13:24;16.30;;;9.27;;
6987;SDS011;3534;49.960;8.018;2023-03-01T04:15:52;13.50;;;8.73;;
6987;SDS011;3534;49.960;8.018;2023-03-01T04:18:20;15.67;;;9.40;;
6987;SDS011;3534;49.960;8.018;2023-03-01T04:20:48;17.53;;;9.53;;
6987;SDS011;3534;49.960;8.018;2023-03-01T04:23:17;15.93;;;10.00;;
6987;SDS011;3534;49.960;8.018;2023-03-01T04:25:47;14.43;;;8.67;;
6987;SDS011;3534;49.960;8.018;2023-03-01T04:28:20;17.43;;;10.20;;
6987;SDS011;3534;49.960;8.018;2023-03-01T04:30:49;16.83;;;9.80;;
6987;SDS011;3534;49.960;8.018;2023-03-01T04:33:15;15.90;;;9.33;;
6987;SDS011;3534;49.960;8.018;2023-03-01T04:35:43;14.60;;;9.37;;
6987;SDS011;3534;49.960;8.018;2023-03-01T04:38:09;17.10;;;9.80;;
6987;SDS011;3534;49.960;8.018;2023-03-01T04:40:36;14.37;;;9.97;;
6987;SDS011;3534;49.960;8.018;2023-03-01T04:43:04;13.83;;;10.10;;
6987;SDS011;3534;49.960;8.018;2023-03-01T04:45:31;17.97;;;10.10;;
6987;SDS011;3534;49.960;8.018;2023-03-01T04:48:00;15.63;;;9.20;;
6987;SDS011;3534;49.960;8.018;2023-03-01T04:50:27;16.60;;;10.10;;
6987;SDS011;3534;49.960;8.018;2023-03-01T04:52:54;14.80;;;9.77;;
6987;SDS011;3534;49.960;8.018;2023-03-01T04:55:23;14.33;;;9.30;;
6987;SDS011;3534;49.960;8.018;2023-03-01T04:57:50;15.63;;;9.40;;
6987;SDS011;3534;49.960;8.018;2023-03-01T05:00:19;15.50;;;9.60;;
6987;SDS011;3534;49.960;8.018;2023-03-01T05:02:47;16.83;;;9.67;;
6987;SDS011;3534;49.960;8.018;2023-03-01T05:05:18;24.70;;;10.43;;
6987;SDS011;3534;49.960;8.018;2023-03-01T05:07:46;19.80;;;10.93;;
6987;SDS011;3534;49.960;8.018;2023-03-01T05:10:13;17.93;;;9.50;;
6987;SDS011;3534;49.960;8.018;2023-03-01T05:12:39;18.80;;;10.70;;
6987;SDS011;3534;49.960;8.018;2023-03-01T05:15:06;18.10;;;9.97;;
6987;SDS011;3534;49.960;8.018;2023-03-01T05:17:35;16.10;;;10.17;;
6987;SDS011;3534;49.960;8.018;2023-03-01T05:20:02;19.40;;;11.23;;
6987;SDS011;3534;49.960;8.018;2023-03-01T05:22:32;20.27;;;10.77;;
6987;SDS011;3534;49.960;8.018;2023-03-01T05:24:58;16.50;;;10.90;;
6987;SDS011;3534;49.960;8.018;2023-03-01T05:27:26;16.43;;;9.77;;
6987;SDS011;3534;49.960;8.018;2023-03-01T05:29:54;19.33;;;10.53;;
6987;SDS011;3534;49.960;8.018;2023-03-01T05:32:21;17.10;;;10.37;;
6987;SDS011;3534;49.960;8.018;2023-03-01T05:34:49;16.10;;;11.20;;
6987;SDS011;3534;49.960;8.018;2023-03-01T05:37:17;13.47;;;10.43;;
6987;SDS011;3534;49.960;8.018;2023-03-01T05:39:44;17.13;;;10.17;;
6987;SDS011;3534;49.960;8.018;2023-03-01T05:42:11;19.43;;;10.30;;
6987;SDS011;3534;49.960;8.018;2023-03-01T05:44:38;16.13;;;10.10;;
6987;SDS011;3534;49.960;8.018;2023-03-01T05:47:05;47.27;;;30.60;;
6987;SDS011;3534;49.960;8.018;2023-03-01T05:49:32;29.57;;;17.30;;
6987;SDS011;3534;49.960;8.018;2023-03-01T05:51:59;21.23;;;14.20;;
6987;SDS011;3534;49.960;8.018;2023-03-01T05:54:26;21.13;;;13.27;;
6987;SDS011;3534;49.960;8.018;2023-03-01T05:56:53;18.80;;;11.53;;
6987;SDS011;3534;49.960;8.018;2023-03-01T05:59:19;18.30;;;11.60;;
6987;SDS011;3534;49.960;8.018;2023-03-01T06:01:46;19.97;;;12.23;;
6987;SDS011;3534;49.960;8.018;2023-03-01T06:04:13;20.67;;;11.37;;
6987;SDS011;3534;49.960;8.018;2023-03-01T06:06:39;20.07;;;11.50;;
6987;SDS011;3534;49.960;8.018;2023-03-01T06:09:07;25.23;;;11.23;;
6987;SDS011;3534;49.960;8.018;2023-03-01T06:11:34;31.80;;;12.00;;
6987;SDS011;3534;49.960;8.018;2023-03-01T06:14:02;19.03;;;11.50;;
6987;SDS011;3534;49.960;8.018;2023-03-01T06:16:31;22.23;;;11.97;;
6987;SDS011;3534;49.960;8.018;2023-03-01T06:18:58;23.27;;;14.10;;
6987;SDS011;3534;49.960;8.018;2023-03-01T06:21:24;20.30;;;11.93;;
6987;SDS011;3534;49.960;8.018;2023-03-01T06:23:51;23.50;;;12.00;;
6987;SDS011;3534;49.960;8.018;2023-03-01T06:26:19;20.03;;;11.87;;
6987;SDS011;3534;49.960;8.018;2023-03-01T06:28:46;22.53;;;13.63;;
6987;SDS011;3534;49.960;8.018;2023-03-01T06:31:12;20.57;;;12.10;;
6987;SDS011;3534;49.960;8.018;2023-03-01T06:33:39;25.70;;;12.30;;
6987;SDS011;3534;49.960;8.018;2023-03-01T06:36:06;23.30;;;12.40;;
6987;SDS011;3534;49.960;8.018;2023-03-01T06:38:34;25.57;;;13.80;;
6987;SDS011;3534;49.960;8.018;2023-03-01T06:41:01;20.87;;;13.57;;
6987;SDS011;3534;49.960;8.018;2023-03-01T06:43:29;24.87;;;13.80;;
6987;SDS011;3534;49.960;8.018;2023-03-01T06:45:56;21.17;;;12.57;;
6987;SDS011;3534;49.960;8.018;2023-03-01T06:48:23;22.53;;;12.63;;
6987;SDS011;3534;49.960;8.018;2023-03-01T06:50:49;22.10;;;12.47;;
6987;SDS011;3534;49.960;8.018;2023-03-01T06:53:16;19.70;;;12.53;;
6987;SDS011;3534;49.960;8.018;2023-03-01T06:55:43;24.70;;;13.43;;
6987;SDS011;3534;49.960;8.018;2023-03-01T06:58:09;17.30;;;12.47;;
6987;SDS011;3534;49.960;8.018;2023-03-01T07:00:38;24.03;;;12.73;;
6987;SDS011;3534;49.960;8.018;2023-03-01T07:03:05;22.63;;;13.33;;
6987;SDS011;3534;49.960;8.018;2023-03-01T07:05:32;26.40;;;15.50;;
6987;SDS011;3534;49.960;8.018;2023-03-01T07:07:59;33.73;;;13.17;;
6987;SDS011;3534;49.960;8.018;2023-03-01T07:10:26;26.53;;;14.20;;
6987;SDS011;3534;49.960;8.018;2023-03-01T07:12:54;30.97;;;17.50;;
6987;SDS011;3534;49.960;8.018;2023-03-01T07:15:21;24.43;;;13.53;;
6987;SDS011;3534;49.960;8.018;2023-03-01T07:17:49;19.07;;;12.33;;
6987;SDS011;3534;49.960;8.018;2023-03-01T07:20:16;23.47;;;13.50;;
6987;SDS011;3534;49.960;8.018;2023-03-01T07:22:43;26.67;;;13.50;;
6987;SDS011;3534;49.960;8.018;2023-03-01T07:25:10;23.27;;;12.80;;
6987;SDS011;3534;49.960;8.018;2023-03-01T07:27:37;21.03;;;12.40;;
6987;SDS011;3534;49.960;8.018;2023-03-01T07:30:04;22.03;;;12.70;;
6987;SDS011;3534;49.960;8.018;2023-03-01T07:32:32;24.03;;;11.90;;
6987;SDS011;3534;49.960;8.018;2023-03-01T07:35:00;26.60;;;12.30;;
6987;SDS011;3534;49.960;8.018;2023-03-01T07:37:26;24.23;;;12.77;;
6987;SDS011;3534;49.960;8.018;2023-03-01T07:39:53;28.20;;;14.20;;
6987;SDS011;3534;49.960;8.018;2023-03-01T07:42:20;19.33;;;12.73;;
6987;SDS011;3534;49.960;8.018;2023-03-01T07:44:46;19.73;;;13.33;;
6987;SDS011;3534;49.960;8.018;2023-03-01T07:47:13;24.87;;;12.70;;
6987;SDS011;3534;49.960;8.018;2023-03-01T07:49:39;24.13;;;13.87;;
6987;SDS011;3534;49.960;8.018;2023-03-01T07:52:07;24.80;;;12.60;;
6987;SDS011;3534;49.960;8.018;2023-03-01T07:54:36;24.30;;;12.50;;
6987;SDS011;3534;49.960;8.018;2023-03-01T07:57:02;29.30;;;13.23;;
6987;SDS011;3534;49.960;8.018;2023-03-01T07:59:29;23.30;;;13.47;;
6987;SDS011;3534;49.960;8.018;2023-03-01T08:01:56;22.33;;;13.43;;
6987;SDS011;3534;49.960;8.018;2023-03-01T08:04:23;22.03;;;12.90;;
6987;SDS011;3534;49.960;8.018;2023-03-01T08:06:51;22.67;;;12.17;;
6987;SDS011;3534;49.960;8.018;2023-03-01T08:09:19;18.47;;;11.63;;
6987;SDS011;3534;49.960;8.018;2023-03-01T08:11:46;19.43;;;12.00;;
6987;SDS011;3534;49.960;8.018;2023-03-01T08:14:13;18.60;;;11.17;;
6987;SDS011;3534;49.960;8.018;2023-03-01T08:16:39;23.40;;;10.93;;
6987;SDS011;3534;49.960;8.018;2023-03-01T08:19:07;19.83;;;10.70;;
6987;SDS011;3534;49.960;8.018;2023-03-01T08:21:35;18.50;;;11.63;;
6987;SDS011;3534;49.960;8.018;2023-03-01T08:24:02;17.57;;;10.50;;
6987;SDS011;3534;49.960;8.018;2023-03-01T08:26:32;15.07;;;10.20;;
6987;SDS011;3534;49.960;8.018;2023-03-01T08:28:59;20.77;;;11.00;;
6987;SDS011;3534;49.960;8.018;2023-03-01T08:31:27;17.33;;;10.93;;
6987;SDS011;3534;49.960;8.018;2023-03-01T08:33:56;17.87;;;11.00;;
6987;SDS011;3534;49.960;8.018;2023-03-01T08:36:26;20.53;;;11.50;;
6987;SDS011;3534;49.960;8.018;2023-03-01T08:38:53;16.57;;;10.50;;
6987;SDS011;3534;49.960;8.018;2023-03-01T08:41:21;23.13;;;11.50;;
6987;SDS011;3534;49.960;8.018;2023-03-01T08:43:49;16.40;;;10.93;;
6987;SDS011;3534;49.960;8.018;2023-03-01T08:46:15;18.80;;;10.30;;
6987;SDS011;3534;49.960;8.018;2023-03-01T08:48:42;15.70;;;9.87;;
6987;SDS011;3534;49.960;8.018;2023-03-01T08:51:09;17.07;;;10.10;;
6987;SDS011;3534;49.960;8.018;2023-03-01T08:53:37;16.60;;;10.00;;
6987;SDS011;3534;49.960;8.018;2023-03-01T08:56:04;15.90;;;10.30;;
6987;SDS011;3534;49.960;8.018;2023-03-01T08:58:31;23.27;;;10.77;;
6987;SDS011;3534;49.960;8.018;2023-03-01T09:01:00;18.33;;;10.40;;
6987;SDS011;3534;49.960;8.018;2023-03-01T09:03:27;22.47;;;10.97;;
6987;SDS011;3534;49.960;8.018;2023-03-01T09:05:53;15.63;;;9.77;;
6987;SDS011;3534;49.960;8.018;2023-03-01T09:08:26;22.00;;;11.13;;
6987;SDS011;3534;49.960;8.018;2023-03-01T09:10:53;17.93;;;10.43;;
6987;SDS011;3534;49.960;8.018;2023-03-01T09:13:19;17.00;;;11.30;;
6987;SDS011;3534;49.960;8.018;2023-03-01T09:15:48;16.87;;;10.90;;
6987;SDS011;3534;49.960;8.018;2023-03-01T09:18:16;17.77;;;10.50;;
6987;SDS011;3534;49.960;8.018;2023-03-01T09:20:43;17.37;;;10.47;;
6987;SDS011;3534;49.960;8.018;2023-03-01T09:23:09;17.70;;;10.60;;
6987;SDS011;3534;49.960;8.018;2023-03-01T09:25:36;20.97;;;10.70;;
6987;SDS011;3534;49.960;8.018;2023-03-01T09:28:03;18.17;;;10.67;;
6987;SDS011;3534;49.960;8.018;2023-03-01T09:30:29;23.50;;;11.37;;
6987;SDS011;3534;49.960;8.018;2023-03-01T09:32:56;15.70;;;10.70;;
6987;SDS011;3534;49.960;8.018;2023-03-01T09:35:24;19.43;;;10.80;;
6987;SDS011;3534;49.960;8.018;2023-03-01T09:37:51;25.20;;;11.30;;
6987;SDS011;3534;49.960;8.018;2023-03-01T09:40:19;18.43;;;11.20;;
6987;SDS011;3534;49.960;8.018;2023-03-01T09:42:50;19.47;;;10.70;;
6987;SDS011;3534;49.960;8.018;2023-03-01T09:45:24;17.97;;;10.50;;
6987;SDS011;3534;49.960;8.018;2023-03-01T09:47:55;20.00;;;11.57;;
6987;SDS011;3534;49.960;8.018;2023-03-01T09:50:22;21.80;;;10.77;;
6987;SDS011;3534;49.960;8.018;2023-03-01T09:52:54;20.93;;;11.07;;
6987;SDS011;3534;49.960;8.018;2023-03-01T09:55:30;19.53;;;11.30;;
6987;SDS011;3534;49.960;8.018;2023-03-01T09:58:00;18.43;;;11.23;;
6987;SDS011;3534;49.960;8.018;2023-03-01T10:00:44;20.23;;;12.00;;
6987;SDS011;3534;49.960;8.018;2023-03-01T10:03:15;15.77;;;11.10;;
6987;SDS011;3534;49.960;8.018;2023-03-01T10:05:52;20.30;;;12.30;;
6987;SDS011;3534;49.960;8.018;2023-03-01T10:08:26;20.53;;;11.03;;
6987;SDS011;3534;49.960;8.018;2023-03-01T10:10:58;21.83;;;12.97;;
6987;SDS011;3534;49.960;8.018;2023-03-01T10:13:26;22.53;;;12.60;;
6987;SDS011;3534;49.960;8.018;2023-03-01T10:15:59;17.57;;;12.03;;
6987;SDS011;3534;49.960;8.018;2023-03-01T10:18:31;20.10;;;12.30;;
6987;SDS011;3534;49.960;8.018;2023-03-01T10:21:07;19.20;;;11.23;;
6987;SDS011;3534;49.960;8.018;2023-03-01T10:23:39;18.50;;;11.77;;
6987;SDS011;3534;49.960;8.018;2023-03-01T10:26:08;19.00;;;12.47;;
6987;SDS011;3534;49.960;8.018;2023-03-01T10:28:49;22.83;;;11.07;;
6987;SDS011;3534;49.960;8.018;2023-03-01T10:31:25;19.10;;;11.97;;
6987;SDS011;3534;49.960;8.018;2023-03-01T10:34:02;19.40;;;12.27;;
6987;SDS011;3534;49.960;8.018;2023-03-01T10:36:32;19.90;;;11.80;;
6987;SDS011;3534;49.960;8.018;2023-03-01T10:38:59;18.10;;;12.37;;
6987;SDS011;3534;49.960;8.018;2023-03-01T10:41:40;21.93;;;12.87;;
6987;SDS011;3534;49.960;8.018;2023-03-01T10:47:14;20.33;;;13.40;;
6987;SDS011;3534;49.960;8.018;2023-03-01T10:49:52;18.63;;;11.47;;
6987;SDS011;3534;49.960;8.018;2023-03-01T10:52:25;21.90;;;11.43;;
6987;SDS011;3534;49.960;8.018;2023-03-01T10:54:57;19.80;;;11.97;;
6987;SDS011;3534;49.960;8.018;2023-03-01T10:57:30;18.67;;;10.83;;
6987;SDS011;3534;49.960;8.018;2023-03-01T11:00:02;29.20;;;16.10;;
6987;SDS011;3534;49.960;8.018;2023-03-01T11:02:45;21.30;;;12.17;;
6987;SDS011;3534;49.960;8.018;2023-03-01T11:05:16;20.10;;;12.60;;
6987;SDS011;3534;49.960;8.018;2023-03-01T11:07:48;19.07;;;11.80;;
6987;SDS011;3534;49.960;8.018;2023-03-01T11:10:17;21.30;;;12.00;;
6987;SDS011;3534;49.960;8.018;2023-03-01T11:12:44;19.97;;;11.70;;
6987;SDS011;3534;49.960;8.018;2023-03-01T11:15:19;23.93;;;11.70;;
6987;SDS011;3534;49.960;8.018;2023-03-01T11:17:48;18.57;;;11.23;;
6987;SDS011;3534;49.960;8.018;2023-03-01T11:20:17;19.50;;;12.47;;
6987;SDS011;3534;49.960;8.018;2023-03-01T11:22:52;18.00;;;12.37;;
6987;SDS011;3534;49.960;8.018;2023-03-01T11:25:21;19.03;;;11.47;;
6987;SDS011;3534;49.960;8.018;2023-03-01T11:27:50;21.87;;;13.07;;
6987;SDS011;3534;49.960;8.018;2023-03-01T11:30:20;21.43;;;13.10;;
6987;SDS011;3534;49.960;8.018;2023-03-01T11:32:51;22.50;;;12.57;;
6987;SDS011;3534;49.960;8.018;2023-03-01T11:35:26;22.87;;;12.27;;
6987;SDS011;3534;49.960;8.018;2023-03-01T11:37:58;24.23;;;12.17;;
6987;SDS011;3534;49.960;8.018;2023-03-01T11:40:32;18.53;;;12.23;;
6987;SDS011;3534;49.960;8.018;2023-03-01T11:43:03;21.83;;;12.93;;
6987;SDS011;3534;49.960;8.018;2023-03-01T11:45:39;22.03;;;12.50;;
6987;SDS011;3534;49.960;8.018;2023-03-01T11:48:28;22.10;;;12.00;;
6987;SDS011;3534;49.960;8.018;2023-03-01T11:51:09;18.93;;;11.87;;
6987;SDS011;3534;49.960;8.018;2023-03-01T11:53:53;17.67;;;11.70;;
6987;SDS011;3534;49.960;8.018;2023-03-01T11:56:31;16.07;;;11.03;;
6987;SDS011;3534;49.960;8.018;2023-03-01T11:59:03;16.30;;;11.27;;
6987;SDS011;3534;49.960;8.018;2023-03-01T12:01:49;15.60;;;11.00;;
6987;SDS011;3534;49.960;8.018;2023-03-01T12:07:42;20.80;;;12.77;;
6987;SDS011;3534;49.960;8.018;2023-03-01T12:10:27;17.40;;;11.60;;
6987;SDS011;3534;49.960;8.018;2023-03-01T12:13:08;17.70;;;11.70;;
6987;SDS011;3534;49.960;8.018;2023-03-01T12:16:09;15.83;;;11.17;;
6987;SDS011;3534;49.960;8.018;2023-03-01T12:18:46;16.80;;;12.80;;
6987;SDS011;3534;49.960;8.018;2023-03-01T12:21:30;13.67;;;9.93;;
6987;SDS011;3534;49.960;8.018;2023-03-01T12:27:07;14.33;;;9.60;;
6987;SDS011;3534;49.960;8.018;2023-03-01T12:29:46;15.63;;;11.13;;
6987;SDS011;3534;49.960;8.018;2023-03-01T12:32:25;12.97;;;8.90;;
6987;SDS011;3534;49.960;8.018;2023-03-01T12:35:19;15.10;;;9.13;;
6987;SDS011;3534;49.960;8.018;2023-03-01T12:37:59;13.57;;;9.90;;
6987;SDS011;3534;49.960;8.018;2023-03-01T12:40:42;13.23;;;9.47;;
6987;SDS011;3534;49.960;8.018;2023-03-01T12:43:32;13.13;;;10.10;;
6987;SDS011;3534;49.960;8.018;2023-03-01T12:46:10;13.53;;;8.90;;
6987;SDS011;3534;49.960;8.018;2023-03-01T12:48:48;13.37;;;8.93;;
6987;SDS011;3534;49.960;8.018;2023-03-01T12:51:22;13.83;;;9.50;;
6987;SDS011;3534;49.960;8.018;2023-03-01T12:53:53;10.63;;;8.53;;
6987;SDS011;3534;49.960;8.018;2023-03-01T12:56:22;10.90;;;7.50;;
6987;SDS011;3534;49.960;8.018;2023-03-01T12:58:54;13.90;;;8.20;;
6987;SDS011;3534;49.960;8.018;2023-03-01T13:01:33;12.50;;;8.80;;
6987;SDS011;3534;49.960;8.018;2023-03-01T13:04:15;11.83;;;9.37;;
6987;SDS011;3534;49.960;8.018;2023-03-01T13:07:02;13.20;;;9.53;;
6987;SDS011;3534;49.960;8.018;2023-03-01T13:09:38;9.57;;;7.53;;
6987;SDS011;3534;49.960;8.018;2023-03-01T13:15:25;9.47;;;7.93;;
6987;SDS011;3534;49.960;8.018;2023-03-01T13:17:55;11.27;;;8.63;;
6987;SDS011;3534;49.960;8.018;2023-03-01T13:20:24;10.47;;;7.53;;
6987;SDS011;3534;49.960;8.018;2023-03-01T13:23:02;13.27;;;8.67;;
6987;SDS011;3534;49.960;8.018;2023-03-01T13:25:32;9.37;;;7.97;;
6987;SDS011;3534;49.960;8.018;2023-03-01T13:31:07;12.07;;;8.40;;
6987;SDS011;3534;49.960;8.018;2023-03-01T13:33:44;9.30;;;7.00;;
6987;SDS011;3534;49.960;8.018;2023-03-01T13:36:39;9.30;;;7.20;;
6987;SDS011;3534;49.960;8.018;2023-03-01T13:39:26;10.33;;;7.57;;
6987;SDS011;3534;49.960;8.018;2023-03-01T13:41:57;8.73;;;7.50;;
6987;SDS011;3534;49.960;8.018;2023-03-01T13:44:25;12.83;;;8.40;;
6987;SDS011;3534;49.960;8.018;2023-03-01T13:46:57;13.67;;;7.40;;
6987;SDS011;3534;49.960;8.018;2023-03-01T13:49:26;9.00;;;6.70;;
6987;SDS011;3534;49.960;8.018;2023-03-01T13:51:57;8.93;;;7.40;;
6987;SDS011;3534;49.960;8.018;2023-03-01T13:54:25;8.47;;;7.27;;
6987;SDS011;3534;49.960;8.018;2023-03-01T13:56:55;11.87;;;7.57;;
6987;SDS011;3534;49.960;8.018;2023-03-01T13:59:23;9.77;;;7.50;;
6987;SDS011;3534;49.960;8.018;2023-03-01T14:01:54;11.90;;;7.13;;
6987;SDS011;3534;49.960;8.018;2023-03-01T14:04:24;11.23;;;6.77;;
6987;SDS011;3534;49.960;8.018;2023-03-01T14:07:08;12.53;;;6.70;;
6987;SDS011;3534;49.960;8.018;2023-03-01T14:09:36;12.03;;;7.20;;
6987;SDS011;3534;49.960;8.018;2023-03-01T14:12:15;11.30;;;7.47;;
6987;SDS011;3534;49.960;8.018;2023-03-01T14:14:53;10.60;;;7.20;;
6987;SDS011;3534;49.960;8.018;2023-03-01T14:17:41;9.83;;;7.37;;
6987;SDS011;3534;49.960;8.018;2023-03-01T14:20:20;10.10;;;7.20;;
6987;SDS011;3534;49.960;8.018;2023-03-01T14:22:50;11.90;;;7.50;;
6987;SDS011;3534;49.960;8.018;2023-03-01T14:25:21;11.30;;;7.50;;
6987;SDS011;3534;49.960;8.018;2023-03-01T14:27:55;12.10;;;7.23;;
6987;SDS011;3534;49.960;8.018;2023-03-01T14:30:41;13.33;;;7.07;;
6987;SDS011;3534;49.960;8.018;2023-03-01T14:33:18;10.70;;;7.03;;
6987;SDS011;3534;49.960;8.018;2023-03-01T14:35:56;9.40;;;6.80;;
6987;SDS011;3534;49.960;8.018;2023-03-01T14:38:28;8.13;;;6.90;;
6987;SDS011;3534;49.960;8.018;2023-03-01T14:40:58;23.30;;;13.07;;
6987;SDS011;3534;49.960;8.018;2023-03-01T14:43:27;12.73;;;8.00;;
6987;SDS011;3534;49.960;8.018;2023-03-01T14:45:56;10.30;;;8.00;;
6987;SDS011;3534;49.960;8.018;2023-03-01T14:48:23;11.80;;;6.80;;
6987;SDS011;3534;49.960;8.018;2023-03-01T14:50:51;7.30;;;6.20;;
6987;SDS011;3534;49.960;8.018;2023-03-01T14:53:20;9.37;;;7.10;;
6987;SDS011;3534;49.960;8.018;2023-03-01T14:55:50;11.73;;;7.90;;
6987;SDS011;3534;49.960;8.018;2023-03-01T14:58:20;10.97;;;7.93;;
6987;SDS011;3534;49.960;8.018;2023-03-01T15:00:49;8.83;;;7.03;;
6987;SDS011;3534;49.960;8.018;2023-03-01T15:03:20;12.97;;;8.00;;
6987;SDS011;3534;49.960;8.018;2023-03-01T15:05:51;9.63;;;7.20;;
6987;SDS011;3534;49.960;8.018;2023-03-01T15:08:20;12.80;;;8.23;;
6987;SDS011;3534;49.960;8.018;2023-03-01T15:10:56;13.83;;;7.63;;
6987;SDS011;3534;49.960;8.018;2023-03-01T15:13:25;12.90;;;8.80;;
6987;SDS011;3534;49.960;8.018;2023-03-01T15:15:59;14.17;;;9.47;;
6987;SDS011;3534;49.960;8.018;2023-03-01T15:18:30;10.97;;;8.90;;
6987;SDS011;3534;49.960;8.018;2023-03-01T15:21:04;11.10;;;7.77;;
6987;SDS011;3534;49.960;8.018;2023-03-01T15:23:34;10.47;;;7.27;;
6987;SDS011;3534;49.960;8.018;2023-03-01T15:26:02;23.63;;;17.20;;
6987;SDS011;3534;49.960;8.018;2023-03-01T15:28:30;27.33;;;18.23;;